createdAt,value
2024-01-11T00:00:17.588Z,167.44
2024-01-11T00:01:17.931Z,170.78
2024-01-11T00:02:17.745Z,168.62
2024-01-11T00:03:17.816Z,169.84
2024-01-11T00:04:17.913Z,170.85
2024-01-11T00:05:18.132Z,169.61
2024-01-11T00:06:18.150Z,168.12
2024-01-11T00:07:18.070Z,170.50
2024-01-11T00:08:18.202Z,169.38
2024-01-11T00:09:18.150Z,167.26
2024-01-11T00:10:18.298Z,168.56
2024-01-11T00:11:18.855Z,170.20
2024-01-11T00:12:18.401Z,170.21
2024-01-11T00:13:18.455Z,168.17
2024-01-11T00:14:18.584Z,168.62
2024-01-11T00:15:18.698Z,168.30
2024-01-11T00:16:18.653Z,169.71
2024-01-11T00:17:18.757Z,168.79
2024-01-11T00:18:18.999Z,170.00
2024-01-11T00:19:18.913Z,168.01
2024-01-11T00:20:18.948Z,169.31
2024-01-11T00:21:19.010Z,169.75
2024-01-11T00:22:19.036Z,163.70
2024-01-11T00:23:19.097Z,165.91
2024-01-11T00:24:19.154Z,167.63
2024-01-11T00:25:19.203Z,171.46
2024-01-11T00:26:19.395Z,167.98
2024-01-11T00:27:19.379Z,165.15
2024-01-11T00:28:19.390Z,167.35
2024-01-11T00:29:19.492Z,169.51
2024-01-11T00:30:19.519Z,165.71
2024-01-11T00:31:19.614Z,165.89
2024-01-11T00:32:19.722Z,166.20
2024-01-11T00:33:19.799Z,167.30
2024-01-11T00:34:19.879Z,167.18
2024-01-11T00:35:19.854Z,166.71
2024-01-11T00:36:19.962Z,167.82
2024-01-11T00:37:20.048Z,165.57
2024-01-11T00:38:20.130Z,167.52
2024-01-11T00:39:20.113Z,163.75
2024-01-11T00:40:20.169Z,166.28
2024-01-11T00:41:20.294Z,166.66
2024-01-11T00:42:20.286Z,165.18
2024-01-11T00:43:20.358Z,164.71
2024-01-11T00:44:20.483Z,164.94
2024-01-11T00:45:20.508Z,164.71
2024-01-11T00:46:20.592Z,162.24
2024-01-11T00:47:20.621Z,162.04
2024-01-11T00:48:20.750Z,162.07
2024-01-11T00:49:21.540Z,163.71
2024-01-11T00:50:20.825Z,162.57
2024-01-11T00:51:20.847Z,161.38
2024-01-11T00:52:20.924Z,164.48
2024-01-11T00:53:21.008Z,162.50
2024-01-11T00:54:21.035Z,161.59
2024-01-11T00:55:21.081Z,159.58
2024-01-11T00:56:21.521Z,158.20
2024-01-11T00:57:22.627Z,160.76
2024-01-11T00:58:21.245Z,162.06
2024-01-11T00:59:21.943Z,160.84
2024-01-11T01:00:21.361Z,158.60
2024-01-11T01:01:21.939Z,158.93
2024-01-11T01:02:21.496Z,160.10
2024-01-11T01:03:21.523Z,160.25
2024-01-11T01:04:21.557Z,158.62
2024-01-11T01:05:21.636Z,157.95
2024-01-11T01:06:21.648Z,158.05
2024-01-11T01:07:21.686Z,158.67
2024-01-11T01:08:21.777Z,159.95
2024-01-11T01:09:21.781Z,158.55
2024-01-11T01:10:21.904Z,158.75
2024-01-11T01:11:21.957Z,159.52
2024-01-11T01:12:21.965Z,162.02
2024-01-11T01:13:22.034Z,156.89
2024-01-11T01:14:22.095Z,159.48
2024-01-11T01:15:22.163Z,157.97
2024-01-11T01:16:22.178Z,156.83
2024-01-11T01:17:22.224Z,154.86
2024-01-11T01:18:22.259Z,157.81
2024-01-11T01:19:22.332Z,158.55
2024-01-11T01:20:22.356Z,156.59
2024-01-11T01:21:22.426Z,156.70
2024-01-11T01:22:22.409Z,156.43
2024-01-11T01:23:22.491Z,156.27
2024-01-11T01:24:22.537Z,156.77
2024-01-11T01:25:22.589Z,156.86
2024-01-11T01:26:22.659Z,158.29
2024-01-11T01:27:22.773Z,154.93
2024-01-11T01:28:22.759Z,153.94
2024-01-11T01:29:22.839Z,153.63
2024-01-11T01:30:22.865Z,154.18
2024-01-11T01:31:22.876Z,153.09
2024-01-11T01:32:23.237Z,153.32
2024-01-11T01:33:23.107Z,152.06
2024-01-11T01:34:23.266Z,153.91
2024-01-11T01:35:23.218Z,153.65
2024-01-11T01:36:23.160Z,153.59
2024-01-11T01:37:23.233Z,151.61
2024-01-11T01:38:23.319Z,154.04
2024-01-11T01:39:23.307Z,152.47
2024-01-11T01:40:23.364Z,149.85
2024-01-11T01:41:23.526Z,149.99
2024-01-11T01:42:23.481Z,151.24
2024-01-11T01:43:23.516Z,148.71
2024-01-11T01:44:23.596Z,153.77
2024-01-11T01:45:23.617Z,150.73
2024-01-11T01:46:23.714Z,148.93
2024-01-11T01:47:23.785Z,151.01
2024-01-11T01:48:24.054Z,148.87
2024-01-11T01:49:24.127Z,151.27
2024-01-11T01:50:23.910Z,149.09
2024-01-11T01:51:23.952Z,151.90
2024-01-11T01:52:24.011Z,147.91
2024-01-11T01:53:24.043Z,150.28
2024-01-11T01:54:24.035Z,147.91
2024-01-11T01:55:24.064Z,151.32
2024-01-11T01:56:24.153Z,146.66
2024-01-11T01:57:24.149Z,147.68
2024-01-11T01:58:24.212Z,149.75
2024-01-11T01:59:24.250Z,146.51
2024-01-11T02:00:24.320Z,145.80
2024-01-11T02:01:24.573Z,146.73
2024-01-11T02:02:24.393Z,149.55
2024-01-11T02:03:24.506Z,148.82
2024-01-11T02:04:24.487Z,147.20
2024-01-11T02:05:24.590Z,148.72
2024-01-11T02:06:24.754Z,142.27
2024-01-11T02:07:24.600Z,147.91
2024-01-11T02:08:24.635Z,144.55
2024-01-11T02:09:24.675Z,146.51
2024-01-11T02:10:24.733Z,145.10
2024-01-11T02:11:24.879Z,146.55
2024-01-11T02:12:24.829Z,146.44
2024-01-11T02:13:24.845Z,144.61
2024-01-11T02:14:24.956Z,145.44
2024-01-11T02:15:24.914Z,143.66
2024-01-11T02:16:24.949Z,142.89
2024-01-11T02:17:25.018Z,147.32
2024-01-11T02:18:25.135Z,146.22
2024-01-11T02:19:25.135Z,143.76
2024-01-11T02:20:25.176Z,142.85
2024-01-11T02:21:25.176Z,143.03
2024-01-11T02:22:25.223Z,145.39
2024-01-11T02:23:25.336Z,143.98
2024-01-11T02:24:25.328Z,146.53
2024-01-11T02:25:25.342Z,144.40
2024-01-11T02:26:25.440Z,143.83
2024-01-11T02:27:25.438Z,141.77
2024-01-11T02:28:25.445Z,140.79
2024-01-11T02:29:25.559Z,143.42
2024-01-11T02:30:25.566Z,142.30
2024-01-11T02:31:25.587Z,142.04
2024-01-11T02:32:25.711Z,145.04
2024-01-11T02:33:26.545Z,141.54
2024-01-11T02:34:25.808Z,140.80
2024-01-11T02:35:25.862Z,139.25
2024-01-11T02:36:25.835Z,140.35
2024-01-11T02:37:25.872Z,140.00
2024-01-11T02:38:26.035Z,141.68
2024-01-11T02:39:25.954Z,140.31
2024-01-11T02:40:25.989Z,141.27
2024-01-11T02:41:26.070Z,141.50
2024-01-11T02:42:26.108Z,139.02
2024-01-11T02:43:26.133Z,140.91
2024-01-11T02:44:26.263Z,137.74
2024-01-11T02:45:26.196Z,138.57
2024-01-11T02:46:26.280Z,137.96
2024-01-11T02:47:26.431Z,139.86
2024-01-11T02:48:26.410Z,136.46
2024-01-11T02:49:26.408Z,138.30
2024-01-11T02:50:26.466Z,139.20
2024-01-11T02:51:26.514Z,137.93
2024-01-11T02:52:26.515Z,139.30
2024-01-11T02:53:26.568Z,139.48
2024-01-11T02:54:26.594Z,138.60
2024-01-11T02:55:26.617Z,138.93
2024-01-11T02:56:26.772Z,135.13
2024-01-11T02:57:26.674Z,135.17
2024-01-11T02:58:26.703Z,134.50
2024-01-11T02:59:26.784Z,136.46
2024-01-11T03:00:26.820Z,137.09
2024-01-11T03:01:26.982Z,136.75
2024-01-11T03:02:26.935Z,134.35
2024-01-11T03:03:27.007Z,134.94
2024-01-11T03:04:26.998Z,134.80
2024-01-11T03:05:27.051Z,137.01
2024-01-11T03:06:27.164Z,135.82
2024-01-11T03:07:27.136Z,135.46
2024-01-11T03:08:27.201Z,134.50
2024-01-11T03:09:27.188Z,136.26
2024-01-11T03:10:27.199Z,134.79
2024-01-11T03:11:27.289Z,135.94
2024-01-11T03:12:27.351Z,133.95
2024-01-11T03:13:27.323Z,134.44
2024-01-11T03:14:27.480Z,136.83
2024-01-11T03:15:27.447Z,134.14
2024-01-11T03:16:27.958Z,134.15
2024-01-11T03:17:27.538Z,134.18
2024-01-11T03:18:27.684Z,135.03
2024-01-11T03:19:27.698Z,132.07
2024-01-11T03:20:27.682Z,134.11
2024-01-11T03:21:27.696Z,131.47
2024-01-11T03:22:27.698Z,132.57
2024-01-11T03:23:27.916Z,131.06
2024-01-11T03:24:27.810Z,132.71
2024-01-11T03:25:27.816Z,130.60
2024-01-11T03:26:27.940Z,131.20
2024-01-11T03:27:27.944Z,133.80
2024-01-11T03:28:27.987Z,132.53
2024-01-11T03:29:28.067Z,130.21
2024-01-11T03:30:28.058Z,132.37
2024-01-11T03:31:28.463Z,130.51
2024-01-11T03:32:28.208Z,133.37
2024-01-11T03:33:28.252Z,132.58
2024-01-11T03:34:28.328Z,129.19
2024-01-11T03:35:28.258Z,130.66
2024-01-11T03:36:28.266Z,128.38
2024-01-11T03:37:28.319Z,129.24
2024-01-11T03:38:28.372Z,130.83
2024-01-11T03:39:28.402Z,129.86
2024-01-11T03:40:28.425Z,130.28
2024-01-11T03:41:28.547Z,131.07
2024-01-11T03:42:28.468Z,130.85
2024-01-11T03:43:28.543Z,129.14
2024-01-11T03:44:28.606Z,128.17
2024-01-11T03:45:28.620Z,129.16
2024-01-11T03:46:28.680Z,128.00
2024-01-11T03:47:28.844Z,128.44
2024-01-11T03:48:28.843Z,130.44
2024-01-11T03:49:28.862Z,130.23
2024-01-11T03:50:28.862Z,128.23
2024-01-11T03:51:28.884Z,126.42
2024-01-11T03:52:28.939Z,130.63
2024-01-11T03:53:28.939Z,129.80
2024-01-11T03:54:28.993Z,127.56
2024-01-11T03:55:29.014Z,130.61
2024-01-11T03:56:29.564Z,127.56
2024-01-11T03:57:29.054Z,128.23
2024-01-11T03:58:29.130Z,126.88
2024-01-11T03:59:29.178Z,126.70
2024-01-11T04:00:29.213Z,127.26
2024-01-11T04:01:29.201Z,128.96
2024-01-11T04:02:29.274Z,127.12
2024-01-11T04:03:29.322Z,127.68
2024-01-11T04:04:29.306Z,127.12
2024-01-11T04:05:29.463Z,126.93
2024-01-11T04:06:29.486Z,125.83
2024-01-11T04:07:29.435Z,124.72
2024-01-11T04:08:29.473Z,127.31
2024-01-11T04:09:29.505Z,127.51
2024-01-11T04:10:29.515Z,125.34
2024-01-11T04:11:30.024Z,125.58
2024-01-11T04:12:29.645Z,126.54
2024-01-11T04:13:29.651Z,124.75
2024-01-11T04:14:29.745Z,126.39
2024-01-11T04:15:29.704Z,126.20
2024-01-11T04:16:30.043Z,124.34
2024-01-11T04:17:29.923Z,126.09
2024-01-11T04:18:29.964Z,123.76
2024-01-11T04:19:30.032Z,126.91
2024-01-11T04:20:29.934Z,123.56
2024-01-11T04:21:30.099Z,123.36
2024-01-11T04:22:30.022Z,123.35
2024-01-11T04:23:30.126Z,127.20
2024-01-11T04:24:30.101Z,126.23
2024-01-11T04:25:30.152Z,122.93
2024-01-11T04:26:30.228Z,124.76
2024-01-11T04:27:30.257Z,125.07
2024-01-11T04:28:30.254Z,122.04
2024-01-11T04:29:30.327Z,124.94
2024-01-11T04:30:30.388Z,122.66
2024-01-11T04:31:30.388Z,124.74
2024-01-11T04:32:37.780Z,50.00
2024-01-11T04:33:37.768Z,50.00
2024-01-11T04:34:37.747Z,50.00
2024-01-11T04:35:37.771Z,50.00
2024-01-11T04:36:37.724Z,50.00
2024-01-11T04:37:37.785Z,52.47
2024-01-11T04:38:37.749Z,51.62
2024-01-11T04:39:37.687Z,52.16
2024-01-11T04:40:37.644Z,51.40
2024-01-11T04:41:37.803Z,50.10
2024-01-11T04:42:37.670Z,51.82
2024-01-11T04:43:37.732Z,51.46
2024-01-11T04:44:37.702Z,54.00
2024-01-11T04:45:37.638Z,51.97
2024-01-11T04:46:37.691Z,51.11
2024-01-11T04:47:37.790Z,54.28
2024-01-11T04:48:37.787Z,51.80
2024-01-11T04:49:37.694Z,52.97
2024-01-11T04:50:37.721Z,52.69
2024-01-11T04:51:37.716Z,51.72
2024-01-11T04:52:37.674Z,53.47
2024-01-11T04:53:37.738Z,51.36
2024-01-11T04:54:37.651Z,50.00
2024-01-11T04:55:37.678Z,52.12
2024-01-11T04:56:37.833Z,52.92
2024-01-11T04:57:37.640Z,52.37
2024-01-11T04:58:37.690Z,54.28
2024-01-11T04:59:37.777Z,54.82
2024-01-11T05:00:37.769Z,52.14
2024-01-11T05:01:37.810Z,52.42
2024-01-11T05:02:37.823Z,53.35
2024-01-11T05:03:37.740Z,54.45
2024-01-11T05:04:37.788Z,51.99
2024-01-11T05:05:37.839Z,50.60
2024-01-11T05:06:37.836Z,49.47
2024-01-11T05:07:37.692Z,53.73
2024-01-11T05:08:37.850Z,51.96
2024-01-11T05:09:37.825Z,54.78
2024-01-11T05:10:37.882Z,52.10
2024-01-11T05:11:38.028Z,52.57
2024-01-11T05:12:37.982Z,52.90
2024-01-11T05:13:38.089Z,52.86
2024-01-11T05:14:38.218Z,50.57
2024-01-11T05:15:38.169Z,51.52
2024-01-11T05:16:38.271Z,53.79
2024-01-11T05:17:38.424Z,55.22
2024-01-11T05:18:38.429Z,51.17
2024-01-11T05:19:38.527Z,53.18
2024-01-11T05:20:38.536Z,53.72
2024-01-11T05:21:38.569Z,51.52
2024-01-11T05:22:38.632Z,53.93
2024-01-11T05:23:38.752Z,54.43
2024-01-11T05:24:38.742Z,51.95
2024-01-11T05:25:38.864Z,52.14
2024-01-11T05:26:38.958Z,50.07
2024-01-11T05:27:39.097Z,50.95
2024-01-11T05:28:39.094Z,52.47
2024-01-11T05:29:39.887Z,52.10
2024-01-11T05:30:39.304Z,51.85
2024-01-11T05:31:39.464Z,50.69
2024-01-11T05:32:39.366Z,53.96
2024-01-11T05:33:39.477Z,50.29
2024-01-11T05:34:39.554Z,54.49
2024-01-11T05:35:39.394Z,53.24
2024-01-11T05:36:39.382Z,51.03
2024-01-11T05:37:39.453Z,51.07
2024-01-11T05:38:39.504Z,54.59
2024-01-11T05:39:39.498Z,50.59
2024-01-11T05:40:39.584Z,54.41
2024-01-11T05:41:39.624Z,56.41
2024-01-11T05:42:39.638Z,55.88
2024-01-11T05:43:39.630Z,58.13
2024-01-11T05:44:39.787Z,56.60
2024-01-11T05:45:47.442Z,58.58
2024-01-11T05:46:40.750Z,58.75
2024-01-11T05:47:39.874Z,58.97
2024-01-11T05:48:39.899Z,60.13
2024-01-11T05:49:39.753Z,61.24
2024-01-11T05:50:39.837Z,61.56
2024-01-11T05:51:39.802Z,54.70
2024-01-11T05:52:39.719Z,49.94
2024-01-11T05:53:39.929Z,49.05
2024-01-11T05:54:39.725Z,50.36
2024-01-11T05:55:39.734Z,50.71
2024-01-11T05:56:39.833Z,51.68
2024-01-11T05:57:39.721Z,50.87
2024-01-11T05:58:39.812Z,50.00
2024-01-11T05:59:39.799Z,50.12
2024-01-11T06:00:39.821Z,50.44
2024-01-11T06:01:40.849Z,50.35
2024-01-11T06:02:39.863Z,50.00
2024-01-11T06:03:40.039Z,50.00
2024-01-11T06:04:39.885Z,50.00
2024-01-11T06:05:40.045Z,50.00
2024-01-11T06:06:40.061Z,50.18
2024-01-11T06:07:40.004Z,50.00
2024-01-11T06:08:40.122Z,50.00
2024-01-11T06:09:40.137Z,50.26
2024-01-11T06:10:40.209Z,50.54
2024-01-11T06:11:40.335Z,50.19
2024-01-11T06:12:40.321Z,51.26
2024-01-11T06:13:40.323Z,50.04
2024-01-11T06:14:40.390Z,50.84
2024-01-11T06:15:40.447Z,50.62
2024-01-11T06:16:40.851Z,50.38
2024-01-11T06:17:40.699Z,50.74
2024-01-11T06:18:40.677Z,51.00
2024-01-11T06:19:40.629Z,50.47
2024-01-11T06:20:40.836Z,50.13
2024-01-11T06:21:40.738Z,50.80
2024-01-11T06:22:42.893Z,50.68
2024-01-11T06:23:40.885Z,50.00
2024-01-11T06:24:40.826Z,50.00
2024-01-11T06:25:40.818Z,50.87
2024-01-11T06:26:41.889Z,50.00
2024-01-11T06:27:40.824Z,51.63
2024-01-11T06:28:40.840Z,51.29
2024-01-11T06:29:40.858Z,50.00
2024-01-11T06:30:40.889Z,50.48
2024-01-11T06:31:40.814Z,50.23
2024-01-11T06:32:40.970Z,50.45
2024-01-11T06:33:40.862Z,51.25
2024-01-11T06:34:40.825Z,51.38
2024-01-11T06:35:40.922Z,50.00
2024-01-11T06:36:41.340Z,50.25
2024-01-11T06:37:40.841Z,50.01
2024-01-11T06:38:40.944Z,50.02
2024-01-11T06:39:40.812Z,52.82
2024-01-11T06:40:40.815Z,51.85
2024-01-11T06:41:41.410Z,51.76
2024-01-11T06:42:40.822Z,50.49
2024-01-11T06:43:40.840Z,50.56
2024-01-11T06:44:40.880Z,50.92
2024-01-11T06:45:40.850Z,50.54
2024-01-11T06:46:40.850Z,50.72
2024-01-11T06:47:40.894Z,50.36
2024-01-11T06:48:53.521Z,50.00
2024-01-11T06:49:53.399Z,50.00
2024-01-11T06:50:53.438Z,50.00
2024-01-11T06:51:53.541Z,50.00
2024-01-11T06:52:53.493Z,50.00
2024-01-11T06:53:53.531Z,52.05
2024-01-11T06:54:53.566Z,55.48
2024-01-11T06:55:53.608Z,52.64
2024-01-11T06:56:53.766Z,50.31
2024-01-11T06:57:53.779Z,50.44
2024-01-11T06:58:53.789Z,57.96
2024-01-11T06:59:53.974Z,65.15
2024-01-11T07:00:53.919Z,63.05
2024-01-11T07:01:53.957Z,61.60
2024-01-11T07:02:53.998Z,66.46
2024-01-11T07:03:54.151Z,69.72
2024-01-11T07:04:54.124Z,74.90
2024-01-11T07:05:54.191Z,80.78
2024-01-11T07:06:54.658Z,86.85
2024-01-11T07:07:54.228Z,93.51
2024-01-11T07:08:54.354Z,97.81
2024-01-11T07:09:54.249Z,102.58
2024-01-11T07:10:54.344Z,105.79
2024-01-11T07:11:54.386Z,104.88
2024-01-11T07:12:54.393Z,107.21
2024-01-11T07:13:54.394Z,108.36
2024-01-11T07:14:54.468Z,110.73
2024-01-11T07:15:54.475Z,108.10
2024-01-11T07:16:54.539Z,111.67
2024-01-11T07:17:54.691Z,116.00
2024-01-11T07:18:54.595Z,118.34
2024-01-11T07:19:54.560Z,121.21
2024-01-11T07:20:54.625Z,123.56
2024-01-11T07:21:54.576Z,120.53
2024-01-11T07:22:54.586Z,122.09
2024-01-11T07:23:54.683Z,126.55
2024-01-11T07:24:54.610Z,127.88
2024-01-11T07:25:54.613Z,127.23
2024-01-11T07:26:54.717Z,125.58
2024-01-11T07:27:54.602Z,128.27
2024-01-11T07:28:54.630Z,126.39
2024-01-11T07:29:54.747Z,129.72
2024-01-11T07:30:54.871Z,126.69
2024-01-11T07:31:55.107Z,130.28
2024-01-11T07:32:54.941Z,134.36
2024-01-11T07:33:54.934Z,135.30
2024-01-11T07:34:54.915Z,137.60
2024-01-11T07:35:55.032Z,137.68
2024-01-11T07:36:55.099Z,133.90
2024-01-11T07:37:55.109Z,131.54
2024-01-11T07:38:55.201Z,126.67
2024-01-11T07:39:55.216Z,122.76
2024-01-11T07:40:55.313Z,121.07
2024-01-11T07:41:55.587Z,119.26
2024-01-11T07:42:55.487Z,117.55
2024-01-11T07:43:55.641Z,120.80
2024-01-11T07:44:55.605Z,115.67
2024-01-11T07:45:55.718Z,109.23
2024-01-11T07:46:58.309Z,108.94
2024-01-11T07:47:55.824Z,109.06
2024-01-11T07:48:55.830Z,109.08
2024-01-11T07:49:55.746Z,107.43
2024-01-11T07:50:55.808Z,106.23
2024-01-11T07:51:55.773Z,95.42
2024-01-11T07:52:55.768Z,92.59
2024-01-11T07:53:55.782Z,91.60
2024-01-11T07:54:55.799Z,88.13
2024-01-11T07:55:55.794Z,88.18
2024-01-11T07:56:56.558Z,85.13
2024-01-11T07:57:55.752Z,83.18
2024-01-11T07:58:55.844Z,84.27
2024-01-11T07:59:55.822Z,84.90
2024-01-11T08:00:55.821Z,80.45
2024-01-11T08:01:56.153Z,83.17
2024-01-11T08:02:55.948Z,80.76
2024-01-11T08:03:55.900Z,76.66
2024-01-11T08:04:56.961Z,74.21
2024-01-11T08:05:55.951Z,74.42
2024-01-11T08:06:56.015Z,69.73
2024-01-11T08:07:56.067Z,67.17
2024-01-11T08:08:56.151Z,66.80
2024-01-11T08:09:56.084Z,67.72
2024-01-11T08:10:56.158Z,67.18
2024-01-11T08:11:57.652Z,65.77
2024-01-11T08:12:56.312Z,66.58
2024-01-11T08:13:56.344Z,62.13
2024-01-11T08:14:56.396Z,61.53
2024-01-11T08:15:56.444Z,59.93
2024-01-11T08:16:56.483Z,62.00
2024-01-11T08:17:56.594Z,63.66
2024-01-11T08:18:56.658Z,64.21
2024-01-11T08:19:56.663Z,60.27
2024-01-11T08:20:56.698Z,60.34
2024-01-11T08:21:56.777Z,62.55
2024-01-11T08:22:56.929Z,60.91
2024-01-11T08:23:59.262Z,60.62
2024-01-11T08:24:56.875Z,60.67
2024-01-11T08:25:56.860Z,59.61
2024-01-11T08:26:56.890Z,60.19
2024-01-11T08:27:56.939Z,60.15
2024-01-11T08:28:56.895Z,66.34
2024-01-11T08:29:56.894Z,64.14
2024-01-11T08:30:56.930Z,64.90
2024-01-11T08:31:56.886Z,65.46
2024-01-11T08:32:57.056Z,65.58
2024-01-11T08:33:57.038Z,66.85
2024-01-11T08:34:56.937Z,66.71
2024-01-11T08:35:56.898Z,69.79
2024-01-11T08:36:56.901Z,67.77
2024-01-11T08:37:56.889Z,70.92
2024-01-11T08:38:56.905Z,71.13
2024-01-11T08:39:56.886Z,72.15
2024-01-11T08:40:56.868Z,73.21
2024-01-11T08:41:57.077Z,71.31
2024-01-11T08:42:56.883Z,67.62
2024-01-11T08:43:56.906Z,66.05
2024-01-11T08:44:58.240Z,65.88
2024-01-11T08:45:56.872Z,65.52
2024-01-11T08:46:56.922Z,67.18
2024-01-11T08:47:57.100Z,65.08
2024-01-11T08:48:57.085Z,61.80
2024-01-11T08:49:57.008Z,68.08
2024-01-11T08:50:57.220Z,65.13
2024-01-11T08:51:57.105Z,69.05
2024-01-11T08:52:57.417Z,66.60
2024-01-11T08:53:58.224Z,64.69
2024-01-11T08:54:57.133Z,67.07
2024-01-11T08:55:57.137Z,69.49
2024-01-11T08:56:57.139Z,69.81
2024-01-11T08:57:57.180Z,67.94
2024-01-11T08:58:57.205Z,68.43
2024-01-11T08:59:57.224Z,67.40
2024-01-11T09:00:57.229Z,67.27
2024-01-11T09:02:06.322Z,67.93
2024-01-11T09:02:59.063Z,67.99
2024-01-11T09:03:57.258Z,68.20
2024-01-11T09:04:57.252Z,68.30
2024-01-11T09:05:57.338Z,68.62
2024-01-11T09:06:57.648Z,67.93
2024-01-11T09:07:57.250Z,67.78
2024-01-11T09:08:57.229Z,67.09
2024-01-11T09:09:57.843Z,69.14
2024-01-11T09:10:57.231Z,69.72
2024-01-11T09:11:57.606Z,67.61
2024-01-11T09:12:57.262Z,68.54
2024-01-11T09:13:57.261Z,69.39
2024-01-11T09:14:57.213Z,68.16
2024-01-11T09:15:58.099Z,65.31
2024-01-11T09:16:57.419Z,65.04
2024-01-11T09:17:57.410Z,68.99
2024-01-11T09:18:57.498Z,66.71
2024-01-11T09:19:57.328Z,69.11
2024-01-11T09:20:57.415Z,72.00
2024-01-11T09:21:58.141Z,66.43
2024-01-11T09:22:57.382Z,70.85
2024-01-11T09:23:57.386Z,71.98
2024-01-11T09:24:57.377Z,69.74
2024-01-11T09:25:57.459Z,70.51
2024-01-11T09:26:57.602Z,66.02
2024-01-11T09:27:57.512Z,66.66
2024-01-11T09:28:57.571Z,64.37
2024-01-11T09:29:57.790Z,64.27
2024-01-11T09:30:57.782Z,63.46
2024-01-11T09:31:57.794Z,70.28
2024-01-11T09:32:57.967Z,69.05
2024-01-11T09:33:57.985Z,69.08
2024-01-11T09:34:57.960Z,69.72
2024-01-11T09:35:58.093Z,70.47
2024-01-11T09:36:59.099Z,73.59
2024-01-11T09:37:58.178Z,72.44
2024-01-11T09:38:58.394Z,76.58
2024-01-11T09:39:58.329Z,76.74
2024-01-11T09:40:58.385Z,68.60
2024-01-11T09:41:59.115Z,67.15
2024-01-11T09:42:58.531Z,67.55
2024-01-11T09:43:58.606Z,68.48
2024-01-11T09:44:58.657Z,66.25
2024-01-11T09:45:58.773Z,67.58
2024-01-11T09:46:59.124Z,68.16
2024-01-11T09:47:58.914Z,67.93
2024-01-11T09:48:58.980Z,70.12
2024-01-11T09:49:59.087Z,77.80
2024-01-11T09:50:59.053Z,82.07
2024-01-11T09:51:59.634Z,76.50
2024-01-11T09:52:59.178Z,73.72
2024-01-11T09:53:59.218Z,71.45
2024-01-11T09:54:59.308Z,73.42
2024-01-11T09:55:59.317Z,70.25
2024-01-11T09:56:59.618Z,67.53
2024-01-11T09:57:59.354Z,66.70
2024-01-11T09:58:59.517Z,69.06
2024-01-11T09:59:59.442Z,75.88
2024-01-11T10:00:59.476Z,79.48
2024-01-11T10:01:59.609Z,82.45
2024-01-11T10:02:59.633Z,82.91
2024-01-11T10:03:59.721Z,86.99
2024-01-11T10:04:59.782Z,87.35
2024-01-11T10:05:59.759Z,87.74
2024-01-11T10:07:00.155Z,93.73
2024-01-11T10:07:59.890Z,92.23
2024-01-11T10:08:59.916Z,91.07
2024-01-11T10:09:59.996Z,92.45
2024-01-11T10:11:00.141Z,98.85
2024-01-11T10:12:00.605Z,92.33
2024-01-11T10:13:00.198Z,89.91
2024-01-11T10:14:00.393Z,89.54
2024-01-11T10:15:00.309Z,92.51
2024-01-11T10:16:00.373Z,93.77
2024-01-11T10:17:00.663Z,97.00
2024-01-11T10:18:00.783Z,95.86
2024-01-11T10:19:00.854Z,92.58
2024-01-11T10:20:00.840Z,91.50
2024-01-11T10:21:00.879Z,94.66
2024-01-11T10:22:00.821Z,99.26
2024-01-11T10:23:00.892Z,98.39
2024-01-11T10:24:00.930Z,102.50
2024-01-11T10:25:00.982Z,102.97
2024-01-11T10:26:01.086Z,110.60
2024-01-11T10:27:01.143Z,106.30
2024-01-11T10:28:01.187Z,107.33
2024-01-11T10:29:01.374Z,107.60
2024-01-11T10:30:01.300Z,113.57
2024-01-11T10:31:01.373Z,118.12
2024-01-11T10:32:01.704Z,119.65
2024-01-11T10:33:01.785Z,124.74
2024-01-11T10:34:01.644Z,121.79
2024-01-11T10:35:02.783Z,124.33
2024-01-11T10:36:01.630Z,124.43
2024-01-11T10:37:01.681Z,121.45
2024-01-11T10:38:01.761Z,122.18
2024-01-11T10:39:01.819Z,121.47
2024-01-11T10:40:01.859Z,122.14
2024-01-11T10:41:01.890Z,122.62
2024-01-11T10:42:04.170Z,123.82
2024-01-11T10:43:02.001Z,121.66
2024-01-11T10:44:02.054Z,117.23
2024-01-11T10:45:02.062Z,104.46
2024-01-11T10:46:02.133Z,98.85
2024-01-11T10:47:02.751Z,101.63
2024-01-11T10:48:04.136Z,104.03
2024-01-11T10:49:02.596Z,111.24
2024-01-11T10:50:02.565Z,114.03
2024-01-11T10:51:02.624Z,114.42
2024-01-11T10:52:03.213Z,114.15
2024-01-11T10:53:02.775Z,115.46
2024-01-11T10:54:03.093Z,113.54
2024-01-11T10:55:02.897Z,114.51
2024-01-11T10:56:02.968Z,111.20
2024-01-11T10:57:03.168Z,110.35
2024-01-11T10:58:03.143Z,108.41
2024-01-11T10:59:03.216Z,110.20
2024-01-11T11:00:03.266Z,104.70
2024-01-11T11:01:03.358Z,104.30
2024-01-11T11:02:04.227Z,102.04
2024-01-11T11:03:03.546Z,100.98
2024-01-11T11:04:03.428Z,95.30
2024-01-11T11:05:03.532Z,95.70
2024-01-11T11:06:03.515Z,93.29
2024-01-11T11:07:03.506Z,91.54
2024-01-11T11:08:03.465Z,91.12
2024-01-11T11:09:03.502Z,88.42
2024-01-11T11:10:03.471Z,86.43
2024-01-11T11:11:03.616Z,86.21
2024-01-11T11:12:03.641Z,85.77
2024-01-11T11:13:03.569Z,83.22
2024-01-11T11:14:03.591Z,81.59
2024-01-11T11:15:03.614Z,78.99
2024-01-11T11:16:03.594Z,79.93
2024-01-11T11:17:03.671Z,77.58
2024-01-11T11:18:03.784Z,75.82
2024-01-11T11:19:11.027Z,50.00
2024-01-11T11:20:11.035Z,50.00
2024-01-11T11:21:11.004Z,50.00
2024-01-11T11:22:11.112Z,50.00
2024-01-11T11:23:11.136Z,50.00
2024-01-11T11:24:11.026Z,50.93
2024-01-11T11:25:11.008Z,51.54
2024-01-11T11:26:11.047Z,49.96
2024-01-11T11:27:11.121Z,50.00
2024-01-11T11:28:11.011Z,51.54
2024-01-11T11:29:11.054Z,50.00
2024-01-11T11:30:11.082Z,53.19
2024-01-11T11:31:10.979Z,52.17
2024-01-11T11:32:11.185Z,50.82
2024-01-11T11:33:11.199Z,52.72
2024-01-11T11:34:11.184Z,50.29
2024-01-11T11:35:11.035Z,51.67
2024-01-11T11:36:11.037Z,54.03
2024-01-11T11:37:11.026Z,51.02
2024-01-11T11:38:11.029Z,52.45
2024-01-11T11:39:11.046Z,52.92
2024-01-11T11:40:11.054Z,50.56
2024-01-11T11:41:11.081Z,52.27
2024-01-11T11:42:11.065Z,50.10
2024-01-11T11:43:11.058Z,50.98
2024-01-11T11:44:11.038Z,50.63
2024-01-11T11:45:11.048Z,51.21
2024-01-11T11:46:11.154Z,49.99
2024-01-11T11:47:11.062Z,52.74
2024-01-11T11:48:11.175Z,51.33
2024-01-11T11:49:11.247Z,52.55
2024-01-11T11:50:11.404Z,52.09
2024-01-11T11:51:11.278Z,52.12
2024-01-11T11:52:11.291Z,50.79
2024-01-11T11:53:11.363Z,51.35
2024-01-11T11:54:11.399Z,51.13
2024-01-11T11:55:11.459Z,50.79
2024-01-11T11:56:11.584Z,49.58
2024-01-11T11:57:11.596Z,53.41
2024-01-11T11:58:11.662Z,50.00
2024-01-11T11:59:11.767Z,50.57
2024-01-11T12:00:11.781Z,51.90
2024-01-11T12:01:11.880Z,50.87
2024-01-11T12:02:11.929Z,51.79
2024-01-11T12:03:11.996Z,53.41
2024-01-11T12:04:12.097Z,51.99
2024-01-11T12:05:12.372Z,51.64
2024-01-11T12:06:12.353Z,51.56
2024-01-11T12:07:12.338Z,53.03
2024-01-11T12:08:12.338Z,53.71
2024-01-11T12:09:12.379Z,52.43
2024-01-11T12:10:12.436Z,50.96
2024-01-11T12:11:12.556Z,53.72
2024-01-11T12:12:15.929Z,50.56
2024-01-11T12:13:12.561Z,50.60
2024-01-11T12:14:12.608Z,50.72
2024-01-11T12:15:12.608Z,48.01
2024-01-11T12:16:12.578Z,47.82
2024-01-11T12:17:12.565Z,47.12
2024-01-11T12:18:12.713Z,50.00
2024-01-11T12:19:12.589Z,50.59
2024-01-11T12:20:12.626Z,53.74
2024-01-11T12:21:12.565Z,53.28
2024-01-11T12:22:12.596Z,50.16
2024-01-11T12:23:12.581Z,52.86
2024-01-11T12:24:12.569Z,53.24
2024-01-11T12:25:12.565Z,54.13
2024-01-11T12:26:12.733Z,52.43
2024-01-11T12:27:12.643Z,50.15
2024-01-11T12:28:12.586Z,50.00
2024-01-11T12:29:12.661Z,51.41
2024-01-11T12:30:12.693Z,52.26
2024-01-11T12:31:12.649Z,52.78
2024-01-11T12:32:12.673Z,50.38
2024-01-11T12:33:12.836Z,51.09
2024-01-11T12:34:12.661Z,52.40
2024-01-11T12:35:12.603Z,52.33
2024-01-11T12:36:12.569Z,51.09
2024-01-11T12:37:12.705Z,52.56
2024-01-11T12:38:12.645Z,52.02
2024-01-11T12:39:12.595Z,51.10
2024-01-11T12:40:12.589Z,54.03
2024-01-11T12:41:12.644Z,51.42
2024-01-11T12:42:12.592Z,51.50